Terminal Aerodrome Forecast
Issued by NWS Glasgow, MT

Home | Current Version | Previous Version | Text Only | Print | Product List | Glossary On
Versions: 1 2 3 4 5 6 7 8 9 10 11 12 13 14
000
FTUS45 KGGW 202300
TAFGGW
TAF
KGGW 202321Z 2100/2124 13003KT P6SM BKN200
     FM210600 23005KT 6SM BR VCFG SCT001 BKN150 WS010/29032KT
     FM211700 29012KT P6SM SCT200=

USA.gov is the U.S. government's official web portal to all federal, state and local government web resources and services.